Time;durP1;ratioP1;P1;durP2;ratioP2;P2;SDS_P1;SDS_P2;PMS_P1;PMS_P2;Temp;Humidity;BMP_temperature;BMP_pressure;BME280_temperature;BME280_humidity;BME280_pressure;Samples;Min_cycle;Max_cycle;Signal;HPM_P1;HPM_P2
2022/11/16 00:01:38;;;;;;;12.05;9.18;;;;;;;5.47;86.01;100605.34;1644422;86;21003;-88
2022/11/16 00:04:06;;;;;;;14.15;11.00;;;;;;;5.48;86.04;100597.95;1644304;86;21012;-89
2022/11/16 00:06:33;;;;;;;13.18;10.10;;;;;;;5.49;86.05;100599.20;1644511;87;20972;-88
2022/11/16 00:11:59;;;;;;;13.20;8.83;;;;;;;5.53;86.00;100589.05;1644606;86;21320;-90
2022/11/16 00:14:29;;;;;;;11.15;7.60;;;;;;;5.55;85.94;100588.53;1646834;87;20966;-88
2022/11/16 00:16:57;;;;;;;11.90;8.10;;;;;;;5.58;85.91;100592.33;1625698;88;21018;-88
2022/11/16 00:19:25;;;;;;;14.25;7.95;;;;;;;5.59;85.88;100581.00;1653912;85;21000;-86
2022/11/16 00:21:53;;;;;;;9.83;7.95;;;;;;;5.59;85.87;100577.56;1654208;85;20897;-88
2022/11/16 00:24:21;;;;;;;13.75;8.15;;;;;;;5.58;85.88;100579.33;1625935;87;21177;-88
2022/11/16 00:26:48;;;;;;;9.50;8.00;;;;;;;5.58;85.99;100570.66;1653837;85;21012;-88
2022/11/16 00:29:21;;;;;;;9.90;7.35;;;;;;;5.58;86.07;100570.66;1625704;88;21001;-89
2022/11/16 00:31:47;;;;;;;12.43;8.40;;;;;;;5.57;86.11;100568.98;1653751;86;20993;-88
2022/11/16 00:34:15;;;;;;;9.13;7.80;;;;;;;5.58;86.18;100574.55;1625589;87;20918;-88
2022/11/16 00:36:42;;;;;;;10.43;8.00;;;;;;;5.57;86.21;100565.08;1653896;85;21185;-89
2022/11/16 00:39:15;;;;;;;10.80;7.70;;;;;;;5.57;86.27;100561.17;1625666;87;20942;-89
2022/11/16 00:41:42;;;;;;;10.23;8.28;;;;;;;5.57;86.34;100553.36;1653783;85;20899;-89
2022/11/16 00:44:10;;;;;;;10.45;8.53;;;;;;;5.58;86.40;100556.34;1625547;88;20979;-90
2022/11/16 00:46:37;;;;;;;13.13;7.80;;;;;;;5.58;86.45;100555.05;1653744;85;20913;-88
2022/11/16 00:49:05;;;;;;;12.60;7.08;;;;;;;5.58;86.53;100552.02;1653839;86;21263;-88
2022/11/16 00:51:33;;;;;;;14.13;9.25;;;;;;;5.59;86.60;100541.98;1625559;87;21121;-87
2022/11/16 00:54:00;;;;;;;9.70;7.42;;;;;;;5.58;86.69;100539.01;1653814;86;20961;-87
2022/11/16 00:56:27;;;;;;;13.05;7.75;;;;;;;5.58;86.74;100526.00;1626130;87;20982;-88
2022/11/16 00:58:56;;;;;;;9.00;7.78;;;;;;;5.59;86.77;100530.28;1654022;85;21012;-88
2022/11/16 01:01:23;;;;;;;9.68;8.38;;;;;;;5.59;86.89;100532.88;1626289;88;21215;-88
2022/11/16 01:03:50;;;;;;;12.75;8.15;;;;;;;5.60;86.95;100530.69;1654457;84;20871;-88
2022/11/16 01:06:19;;;;;;;11.28;7.72;;;;;;;5.61;87.00;100532.37;1625731;87;20962;-87
2022/11/16 01:08:47;;;;;;;9.80;7.90;;;;;;;5.60;87.02;100525.48;1653666;85;20980;-86
2022/11/16 01:14:02;;;;;;;9.68;7.15;;;;;;;5.64;87.10;100513.19;1655413;85;21181;-86
2022/11/16 01:16:30;;;;;;;10.13;7.87;;;;;;;5.67;87.07;100512.20;1628637;87;20895;-85
2022/11/16 01:18:56;;;;;;;8.15;7.20;;;;;;;5.69;87.07;100509.95;1655912;85;21006;-87
2022/11/16 01:21:23;;;;;;;11.10;7.70;;;;;;;5.70;87.04;100501.23;1626815;87;20938;-87
2022/11/16 01:23:51;;;;;;;11.00;7.33;;;;;;;5.72;87.02;100500.71;1653820;85;20918;-87
2022/11/16 01:26:18;;;;;;;10.75;7.85;;;;;;;5.72;87.02;100494.20;1626298;87;21288;-87
2022/11/16 01:28:45;;;;;;;10.75;7.33;;;;;;;5.74;87.03;100492.85;1656416;84;20961;-86
2022/11/16 01:31:13;;;;;;;11.15;7.08;;;;;;;5.76;87.00;100496.23;1628557;87;20986;-87
2022/11/16 01:33:40;;;;;;;9.63;7.03;;;;;;;5.77;87.01;100492.25;1656271;84;21145;-87
2022/11/16 01:36:13;;;;;;;8.70;7.00;;;;;;;5.78;86.94;100493.95;1627677;87;21006;-88
2022/11/16 01:38:44;;;;;;;14.93;7.25;;;;;;;5.79;86.92;100486.53;1653725;85;22008;-88
2022/11/16 01:41:14;;;;;;;11.00;7.40;;;;;;;5.80;86.93;100490.84;1625636;87;20934;-88
2022/11/16 01:44:00;;;;;;;13.68;7.70;;;;;;;5.81;86.91;100474.77;1653812;85;20954;-87
2022/11/16 01:46:29;;;;;;;11.63;7.42;;;;;;;5.82;86.93;100476.44;1625189;87;20971;-87
2022/11/16 01:49:07;;;;;;;11.80;7.85;;;;;;;5.84;86.95;100468.58;1653662;86;20937;-87
2022/11/16 01:51:34;;;;;;;10.98;6.87;;;;;;;5.84;86.92;100473.31;1627011;88;21116;-85
2022/11/16 01:54:05;;;;;;;8.83;6.28;;;;;;;5.86;86.92;100474.10;1653646;85;20874;-89
2022/11/16 01:56:33;;;;;;;9.63;7.45;;;;;;;5.86;86.90;100462.39;1653599;86;21733;-89
2022/11/16 01:59:05;;;;;;;9.23;7.55;;;;;;;5.89;86.89;100465.31;1652816;85;21081;-87
2022/11/16 02:01:32;;;;;;;9.88;7.10;;;;;;;5.88;86.85;100459.27;1653679;86;20922;-86
2022/11/16 02:05:58;;;;;;;11.57;7.67;;;;;;;5.93;86.89;100460.37;1854880;77;22561;-88
2022/11/16 02:11:53;;;;;;;9.83;7.95;;;;;;;5.90;86.90;100460.05;1822456;78;21236;-87
2022/11/16 02:14:40;;;;;;;8.88;6.28;;;;;;;5.92;86.89;100459.53;1822158;78;20947;-88
2022/11/16 02:17:31;;;;;;;9.68;7.30;;;;;;;5.96;86.87;100466.33;1822436;78;20884;-86
2022/11/16 02:20:26;;;;;;;11.80;8.18;;;;;;;5.98;86.81;100477.95;1825300;78;20919;-87
2022/11/16 02:23:26;;;;;;;9.68;7.35;;;;;;;6.00;86.79;100468.33;1788163;78;20978;-85
2022/11/16 02:26:14;;;;;;;7.83;6.92;;;;;;;6.00;86.73;100469.20;1822675;78;21138;-85
2022/11/16 02:29:01;;;;;;;8.55;6.65;;;;;;;6.00;86.72;100468.33;1823092;78;20829;-86
2022/11/16 02:31:34;;;;;;;10.10;7.53;;;;;;;6.02;86.72;100460.00;1812205;78;20903;-87
2022/11/16 02:34:00;;;;;;;11.48;7.33;;;;;;;6.03;86.69;100460.87;1822373;78;20927;-87
2022/11/16 02:36:28;;;;;;;12.55;8.78;;;;;;;6.05;86.67;100460.31;1791084;78;20887;-86
2022/11/16 02:39:00;;;;;;;12.55;8.45;;;;;;;6.05;86.60;100458.58;1822365;78;21845;-86
2022/11/16 02:41:27;;;;;;;9.43;8.48;;;;;;;6.08;86.64;100454.53;1821205;78;21092;-86
2022/11/16 02:44:01;;;;;;;10.58;7.10;;;;;;;6.10;86.58;100461.81;1822376;78;21387;-88
2022/11/16 02:46:37;;;;;;;8.55;6.87;;;;;;;6.09;86.52;100456.23;1784917;78;21377;-87
2022/11/16 02:49:09;;;;;;;10.38;7.60;;;;;;;6.10;86.47;100460.52;1822153;78;20974;-87
2022/11/16 02:51:38;;;;;;;10.03;6.42;;;;;;;6.11;86.48;100453.08;1822268;78;21311;-86
2022/11/16 02:54:12;;;;;;;9.15;6.87;;;;;;;6.11;86.41;100450.94;1790406;78;20872;-88
2022/11/16 02:56:48;;;;;;;7.67;6.78;;;;;;;6.11;86.43;100450.48;1822304;78;21381;-85
2022/11/16 02:59:17;;;;;;;10.78;7.17;;;;;;;6.11;86.41;100446.57;1822334;78;20930;-86
2022/11/16 03:02:11;;;;;;;8.33;7.42;;;;;;;6.11;86.44;100440.06;1822137;78;20943;-85
2022/11/16 03:04:50;;;;;;;8.68;7.35;;;;;;;6.12;86.48;100438.33;1820709;78;21173;-85
2022/11/16 03:07:21;;;;;;;13.95;7.70;;;;;;;6.13;86.52;100429.59;1825583;78;20888;-85
2022/11/16 03:09:48;;;;;;;14.00;9.80;;;;;;;6.14;86.51;100425.62;1825627;78;20907;-87
2022/11/16 03:12:19;;;;;;;17.32;12.07;;;;;;;6.16;86.49;100424.27;1825615;78;20915;-86
2022/11/16 03:15:00;;;;;;;10.03;7.85;;;;;;;6.16;86.51;100409.48;1825547;78;20982;-87
2022/11/16 03:17:40;;;;;;;11.08;9.08;;;;;;;6.18;86.54;100412.00;1824944;78;21116;-88
2022/11/16 03:20:12;;;;;;;8.83;7.87;;;;;;;6.21;86.57;100415.78;1824974;78;20891;-88
2022/11/16 03:22:50;;;;;;;9.73;8.30;;;;;;;6.26;86.55;100407.76;1824808;78;20872;-86
2022/11/16 03:25:19;;;;;;;13.62;9.23;;;;;;;6.30;86.43;100394.98;1793661;78;21005;-88
2022/11/16 03:28:01;;;;;;;14.23;8.80;;;;;;;6.30;86.40;100392.39;1825149;78;20868;-87
2022/11/16 03:30:31;;;;;;;9.95;8.40;;;;;;;6.33;86.35;100395.67;1824980;78;21239;-86
2022/11/16 03:33:27;;;;;;;19.70;10.25;;;;;;;6.34;86.29;100392.17;1826325;78;20911;-87
2022/11/16 03:36:01;;;;;;;11.20;8.60;;;;;;;6.35;86.26;100397.75;1825272;78;20931;-88
2022/11/16 03:38:30;;;;;;;10.90;9.00;;;;;;;6.35;86.23;100389.11;1825161;78;20888;-88
2022/11/16 03:41:03;;;;;;;14.80;9.73;;;;;;;6.34;86.25;100391.34;1825242;78;20923;-88
2022/11/16 03:43:32;;;;;;;12.07;7.78;;;;;;;6.30;86.37;100385.41;1822799;78;21154;-88
2022/11/16 03:45:59;;;;;;;9.83;8.15;;;;;;;6.27;86.50;100382.09;1824955;78;20842;-88
2022/11/16 03:48:34;;;;;;;8.73;7.35;;;;;;;6.25;86.65;100391.73;1825265;78;20966;-87
2022/11/16 03:51:02;;;;;;;12.65;9.13;;;;;;;6.22;86.82;100378.40;1797404;78;21341;-88
2022/11/16 03:53:28;;;;;;;15.15;10.15;;;;;;;6.19;86.92;100383.76;1797454;78;21025;-89
2022/11/16 03:55:55;;;;;;;13.53;9.18;;;;;;;6.18;87.07;100381.62;1825068;78;21088;-90
2022/11/16 03:58:23;;;;;;;11.22;8.10;;;;;;;6.16;87.17;100376.94;1824712;78;21085;-89
2022/11/16 04:00:52;;;;;;;16.00;9.00;;;;;;;6.17;87.30;100366.89;1825566;78;20887;-86
2022/11/16 04:03:19;;;;;;;10.58;8.70;;;;;;;6.15;87.36;100362.67;1825756;78;20935;-87
2022/11/16 04:25:15;;;;;;;15.05;10.95;;;;;;;6.17;87.95;100343.93;1821719;78;20919;-89
2022/11/16 04:37:47;;;;;;;17.07;10.65;;;;;;;6.20;87.96;100339.44;1822230;78;20927;-90
2022/11/16 04:38:26;;;;;;;11.73;9.88;;;;;;;6.26;87.95;100323.13;1756672;78;21196;-88
2022/11/16 04:40:52;;;;;;;13.78;9.23;;;;;;;6.27;87.93;100324.80;1824141;78;21003;-89
2022/11/16 04:43:21;;;;;;;11.60;8.70;;;;;;;6.28;87.97;100333.02;1824099;77;20985;-89
2022/11/16 04:48:35;;;;;;;17.45;10.43;;;;;;;6.26;88.02;100334.38;1823290;77;21123;-88
2022/11/16 04:51:02;;;;;;;13.45;11.70;;;;;;;6.25;88.13;100333.14;1821881;78;20880;-86
2022/11/16 04:53:30;;;;;;;13.78;9.63;;;;;;;6.23;88.17;100334.54;1821705;78;20880;-87
2022/11/16 04:56:01;;;;;;;15.75;11.33;;;;;;;6.22;88.26;100330.23;1813877;78;20895;-88
2022/11/16 04:58:29;;;;;;;14.70;11.33;;;;;;;6.22;88.30;100327.63;1821846;78;20907;-87
2022/11/16 05:00:59;;;;;;;16.20;13.05;;;;;;;6.22;88.39;100325.89;1821497;78;21790;-86
2022/11/16 05:03:26;;;;;;;17.52;12.60;;;;;;;6.21;88.41;100329.39;1789857;78;21402;-86
2022/11/16 05:05:52;;;;;;;18.90;12.00;;;;;;;6.22;88.47;100328.49;1823798;78;20832;-85
2022/11/16 05:08:20;;;;;;;15.70;11.22;;;;;;;6.22;88.60;100335.44;1824917;78;20883;-87
2022/11/16 05:10:50;;;;;;;12.98;10.30;;;;;;;6.24;88.68;100345.33;1825553;78;20915;-88
2022/11/16 05:13:17;;;;;;;15.35;11.10;;;;;;;6.22;88.83;100341.52;1825259;78;21075;-91
2022/11/16 05:15:45;;;;;;;13.60;11.43;;;;;;;6.21;88.87;100335.91;1826748;78;20962;-87
2022/11/16 05:18:12;;;;;;;15.15;10.13;;;;;;;6.21;88.94;100341.58;1825014;78;20887;-87
2022/11/16 05:26:12;;;;;;;17.80;11.50;;;;;;;6.24;88.76;100342.72;1825169;78;21126;-87
2022/11/16 05:28:39;;;;;;;18.00;11.93;;;;;;;6.24;88.78;100336.22;1824996;78;21398;-88
2022/11/16 05:31:06;;;;;;;19.77;12.33;;;;;;;6.26;88.78;100335.69;1825041;78;21471;-87
2022/11/16 05:33:33;;;;;;;19.75;15.15;;;;;;;6.25;88.79;100336.62;1825519;78;20958;-87
2022/11/16 05:36:00;;;;;;;24.80;13.60;;;;;;;6.27;88.82;100336.52;1825102;78;20915;-89
2022/11/16 05:38:27;;;;;;;23.95;14.53;;;;;;;6.28;88.79;100332.55;1825095;78;21805;-89
2022/11/16 05:40:55;;;;;;;45.58;22.87;;;;;;;6.29;88.79;100336.00;1825141;78;21047;-89
2022/11/16 05:43:22;;;;;;;54.35;29.15;;;;;;;6.28;88.82;100327.34;1825055;78;20872;-90
2022/11/16 05:45:50;;;;;;;40.73;24.52;;;;;;;6.27;88.98;100335.22;1823989;78;21354;-88
2022/11/16 05:48:18;;;;;;;32.85;22.87;;;;;;;6.26;89.09;100329.64;1825051;78;20872;-88
2022/11/16 05:50:45;;;;;;;25.10;16.60;;;;;;;6.26;89.15;100325.73;1825043;78;21137;-89
2022/11/16 05:53:15;;;;;;;13.28;11.03;;;;;;;6.28;89.24;100330.42;1824158;78;21428;-89
2022/11/16 05:55:42;;;;;;;21.02;12.68;;;;;;;6.29;89.25;100322.97;1825017;78;20900;-88
2022/11/16 05:58:08;;;;;;;22.13;14.00;;;;;;;6.30;89.33;100320.77;1825027;78;20879;-88
2022/11/16 06:00:35;;;;;;;20.95;13.00;;;;;;;6.30;89.37;100329.42;1825004;78;20977;-88
2022/11/16 06:03:03;;;;;;;22.27;13.40;;;;;;;6.33;89.43;100318.02;1825068;78;21100;-89
2022/11/16 06:05:35;;;;;;;20.32;13.05;;;;;;;6.34;89.54;100316.65;1826587;77;21025;-88
2022/11/16 06:08:02;;;;;;;20.90;12.95;;;;;;;6.36;89.61;100314.82;1824854;78;20844;-87
2022/11/16 06:10:30;;;;;;;20.70;12.90;;;;;;;6.39;89.61;100309.45;1792714;78;20899;-85
2022/11/16 06:12:56;;;;;;;15.38;12.13;;;;;;;6.42;89.70;100311.06;1822254;78;20978;-88
2022/11/16 06:15:23;;;;;;;19.50;14.30;;;;;;;6.44;89.71;100310.06;1822286;78;21464;-88
2022/11/16 06:17:51;;;;;;;18.10;13.35;;;;;;;6.47;89.84;100313.45;1822299;78;20919;-88
2022/11/16 06:20:18;;;;;;;15.20;11.38;;;;;;;6.52;89.88;100304.51;1822539;78;20939;-89
2022/11/16 06:22:44;;;;;;;13.83;11.03;;;;;;;6.56;89.84;100301.30;1790444;78;20880;-87
2022/11/16 06:25:12;;;;;;;17.70;12.03;;;;;;;6.60;89.86;100295.88;1821541;78;20887;-85
2022/11/16 06:27:41;;;;;;;14.58;10.80;;;;;;;6.64;89.84;100293.47;1821459;78;21558;-88
2022/11/16 06:30:09;;;;;;;14.23;11.78;;;;;;;6.69;89.83;100291.94;1821411;78;20903;-89
2022/11/16 06:32:36;;;;;;;16.35;11.18;;;;;;;6.73;89.82;100293.95;1821499;78;20978;-88
2022/11/16 06:35:04;;;;;;;18.17;11.15;;;;;;;6.76;89.63;100295.09;1821454;78;21013;-89
2022/11/16 06:37:33;;;;;;;14.00;12.30;;;;;;;6.79;89.53;100296.26;1821381;78;20998;-88
2022/11/16 06:40:00;;;;;;;17.45;11.25;;;;;;;6.81;89.39;100286.61;1821540;78;21153;-88
2022/11/16 06:42:27;;;;;;;15.43;11.55;;;;;;;6.86;89.32;100292.42;1822096;78;20974;-88
2022/11/16 06:44:54;;;;;;;12.43;11.00;;;;;;;6.90;89.23;100290.05;1821648;78;21408;-89
2022/11/16 06:47:22;;;;;;;17.50;11.55;;;;;;;6.95;89.03;100292.42;1821590;78;20856;-89
2022/11/16 06:49:49;;;;;;;15.58;11.68;;;;;;;6.97;88.82;100285.38;1821952;78;21002;-89
2022/11/16 06:52:18;;;;;;;36.83;22.75;;;;;;;6.98;88.68;100277.92;1821789;78;21168;-90
2022/11/16 06:54:45;;;;;;;31.45;20.52;;;;;;;6.97;88.59;100279.69;1822235;78;20903;-89
2022/11/16 06:57:11;;;;;;;15.72;11.85;;;;;;;6.97;88.57;100276.25;1823946;78;20880;-89
2022/11/16 06:59:39;;;;;;;16.32;11.73;;;;;;;6.99;88.52;100276.55;1790816;78;20938;-89
2022/11/16 07:02:10;;;;;;;19.80;12.20;;;;;;;7.00;88.48;100281.30;1822151;78;20924;-88
2022/11/16 07:04:37;;;;;;;19.62;13.43;;;;;;;7.02;88.54;100278.16;1821740;78;21193;-88
2022/11/16 07:07:04;;;;;;;15.55;12.28;;;;;;;7.04;88.57;100275.84;1822424;78;20971;-89
2022/11/16 07:09:36;;;;;;;21.82;16.70;;;;;;;7.05;88.54;100274.94;1823274;78;20875;-90
2022/11/16 07:12:04;;;;;;;31.73;20.82;;;;;;;7.07;88.54;100274.87;1823701;78;20955;-88
2022/11/16 07:14:32;;;;;;;33.73;20.40;;;;;;;7.08;88.52;100256.98;1822331;78;20915;-90
2022/11/16 07:16:59;;;;;;;32.88;21.87;;;;;;;7.10;88.50;100254.31;1822973;78;21464;-90
2022/11/16 07:19:27;;;;;;;33.38;20.37;;;;;;;7.11;88.51;100258.59;1791657;78;21413;-89
2022/11/16 07:21:54;;;;;;;28.23;19.25;;;;;;;7.13;88.52;100254.98;1822705;78;20903;-90
2022/11/16 07:24:23;;;;;;;28.02;18.85;;;;;;;7.16;88.50;100255.28;1823801;78;20891;-89
2022/11/16 07:26:49;;;;;;;32.75;21.30;;;;;;;7.21;88.47;100253.30;1824325;78;20875;-91
2022/11/16 07:29:20;;;;;;;26.25;19.17;;;;;;;7.24;88.29;100240.08;1792785;78;21372;-90
2022/11/16 07:31:48;;;;;;;28.65;20.40;;;;;;;7.26;88.20;100251.28;1820175;77;20915;-91
2022/11/16 07:34:29;;;;;;;39.50;27.62;;;;;;;7.27;88.18;100243.86;1817582;78;21373;-91
2022/11/16 07:37:09;;;;;;;35.43;22.82;;;;;;;7.30;88.12;100241.55;1821382;78;20868;-90
2022/11/16 07:39:36;;;;;;;33.28;23.40;;;;;;;7.33;88.07;100238.30;1822404;78;20982;-90
2022/11/16 07:42:04;;;;;;;31.07;21.23;;;;;;;7.37;88.10;100229.39;1822149;78;21187;-91
2022/11/16 07:44:33;;;;;;;29.35;22.10;;;;;;;7.43;87.98;100232.15;1814749;78;21030;-90
2022/11/16 07:47:07;;;;;;;31.05;22.50;;;;;;;7.49;87.88;100230.49;1822000;78;21460;-90
2022/11/16 07:49:35;;;;;;;33.88;27.73;;;;;;;7.57;87.83;100228.80;1822963;77;21246;-90
2022/11/16 07:52:03;;;;;;;36.15;24.15;;;;;;;7.64;87.52;100232.75;1823292;77;20903;-90
2022/11/16 07:54:41;;;;;;;31.42;22.65;;;;;;;7.70;87.33;100237.64;1807864;77;21175;-90
2022/11/16 07:57:10;;;;;;;21.37;17.35;;;;;;;7.76;87.13;100232.09;1824405;77;20919;-89
2022/11/16 07:59:38;;;;;;;21.33;14.85;;;;;;;7.82;86.82;100229.59;1824042;77;20880;-90
2022/11/16 08:02:09;;;;;;;22.45;14.85;;;;;;;7.82;86.40;100230.44;1822891;78;20938;-90
2022/11/16 08:04:40;;;;;;;31.55;23.20;;;;;;;7.81;86.22;100228.77;1823706;78;20935;-90
2022/11/16 08:07:07;;;;;;;31.97;24.80;;;;;;;7.82;86.13;100238.27;1826554;78;21092;-89
2022/11/16 08:09:38;;;;;;;38.42;26.50;;;;;;;7.83;86.04;100244.35;1826102;78;20943;-89
2022/11/16 08:12:06;;;;;;;41.50;25.65;;;;;;;7.84;86.02;100236.89;1827501;78;20939;-90
2022/11/16 08:14:35;;;;;;;31.75;23.20;;;;;;;7.87;85.92;100238.05;1826756;78;20895;-90
2022/11/16 08:17:04;;;;;;;37.03;24.55;;;;;;;7.92;85.95;100241.70;1826663;78;21306;-87
2022/11/16 08:19:32;;;;;;;41.73;30.72;;;;;;;7.95;85.86;100242.36;1825971;78;21315;-90
2022/11/16 08:22:01;;;;;;;29.90;18.95;;;;;;;7.97;85.79;100235.28;1826254;78;20884;-89
2022/11/16 08:24:28;;;;;;;24.37;16.30;;;;;;;8.00;85.74;100236.87;1826335;78;20926;-90
2022/11/16 08:26:57;;;;;;;19.05;15.98;;;;;;;7.97;85.65;100230.06;1826100;78;20931;-90
2022/11/16 08:29:25;;;;;;;24.15;16.32;;;;;;;7.97;85.75;100226.14;1826159;78;20971;-89
2022/11/16 08:31:54;;;;;;;29.07;17.55;;;;;;;8.00;85.85;100225.12;1826058;78;22153;-89
2022/11/16 08:34:22;;;;;;;24.72;16.60;;;;;;;8.01;85.80;100217.22;1798704;78;20895;-90
2022/11/16 08:36:54;;;;;;;30.92;20.27;;;;;;;8.01;85.87;100210.69;1827164;78;20871;-90
2022/11/16 08:39:22;;;;;;;28.73;18.77;;;;;;;8.05;85.98;100200.92;1826382;78;21369;-87
2022/11/16 08:41:50;;;;;;;23.75;17.30;;;;;;;8.12;86.12;100200.95;1798221;78;20926;-90
2022/11/16 08:44:16;;;;;;;24.07;15.93;;;;;;;8.16;85.89;100218.14;1825258;78;21093;-89
2022/11/16 08:46:45;;;;;;;24.63;15.88;;;;;;;8.18;85.84;100209.75;1825129;78;20947;-92
2022/11/16 08:49:16;;;;;;;28.12;16.80;;;;;;;8.20;85.79;100200.50;1823715;78;21051;-89
2022/11/16 08:51:43;;;;;;;28.98;16.40;;;;;;;8.23;85.89;100199.04;1825400;78;20915;-90
2022/11/16 08:54:13;;;;;;;26.05;17.37;;;;;;;8.26;85.82;100196.24;1825712;78;20919;-89
2022/11/16 08:56:41;;;;;;;24.20;15.53;;;;;;;8.26;85.71;100199.69;1825862;78;21092;-90
2022/11/16 08:59:09;;;;;;;20.75;14.35;;;;;;;8.27;85.73;100192.25;1825406;78;20915;-91
2022/11/16 09:01:38;;;;;;;25.40;16.05;;;;;;;8.30;85.84;100191.22;1825763;78;20848;-89
2022/11/16 09:04:05;;;;;;;27.62;17.55;;;;;;;8.34;85.85;100183.59;1825704;78;20918;-87
2022/11/16 09:06:35;;;;;;;25.75;16.55;;;;;;;8.40;85.83;100183.24;1826155;78;20931;-90
2022/11/16 09:09:02;;;;;;;20.90;14.40;;;;;;;8.44;85.70;100175.61;1774540;78;21342;-88
2022/11/16 09:11:29;;;;;;;21.95;15.85;;;;;;;8.47;85.52;100174.58;1825924;78;21393;-89
2022/11/16 09:13:57;;;;;;;23.87;15.83;;;;;;;8.46;85.50;100176.36;1827281;78;21051;-90
2022/11/16 09:16:26;;;;;;;20.37;14.55;;;;;;;8.49;85.50;100178.81;1826826;78;21018;-88
2022/11/16 09:18:53;;;;;;;22.05;14.87;;;;;;;8.53;85.44;100181.23;1825376;78;20868;-89
2022/11/16 09:21:27;;;;;;;20.30;14.15;;;;;;;8.54;85.41;100180.29;1825648;78;21218;-90
2022/11/16 09:23:56;;;;;;;24.20;16.77;;;;;;;8.57;85.42;100180.13;1825777;78;20970;-90
2022/11/16 09:26:27;;;;;;;22.02;15.23;;;;;;;8.59;85.42;100184.33;1825307;78;21314;-89
2022/11/16 09:28:59;;;;;;;24.18;15.50;;;;;;;8.60;85.43;100178.63;1792103;80;20981;-88
2022/11/16 09:31:27;;;;;;;21.50;13.75;;;;;;;8.59;85.47;100174.35;1792310;80;20940;-89
2022/11/16 09:33:57;;;;;;;27.20;17.10;;;;;;;8.59;85.69;100171.27;1792291;79;21118;-88
2022/11/16 09:36:26;;;;;;;26.70;18.75;;;;;;;8.60;85.77;100169.02;1792546;80;20979;-91
2022/11/16 09:38:53;;;;;;;25.52;18.35;;;;;;;8.62;85.88;100154.55;1788321;80;21023;-89
2022/11/16 09:41:49;;;;;;;28.65;17.05;;;;;;;8.65;86.03;100157.01;1792545;80;20951;-90
2022/11/16 09:45:03;;;;;;;26.40;17.02;;;;;;;8.66;86.05;100152.97;1792278;80;20967;-91
2022/11/16 09:47:49;;;;;;;27.17;16.90;;;;;;;8.70;86.23;100146.63;1792390;80;21602;-90
2022/11/16 09:50:32;;;;;;;21.50;16.07;;;;;;;8.76;86.16;100145.87;1791993;79;20928;-90
2022/11/16 09:53:19;;;;;;;33.88;26.05;;;;;;;8.76;86.21;100145.87;1792397;80;20947;-89
2022/11/16 09:55:50;;;;;;;28.80;21.93;;;;;;;8.79;86.34;100142.63;1751052;81;21055;-90
2022/11/16 09:58:30;;;;;;;22.65;15.60;;;;;;;8.86;86.33;100147.02;1751077;82;21009;-89
2022/11/16 10:01:07;;;;;;;26.82;17.77;;;;;;;8.89;86.14;100145.52;1750896;82;21247;-90
2022/11/16 10:03:39;;;;;;;24.05;17.32;;;;;;;8.92;86.09;100150.58;1750636;80;21031;-91
2022/11/16 10:06:09;;;;;;;28.35;19.73;;;;;;;8.93;86.09;100141.78;1747967;82;21047;-89
2022/11/16 10:08:50;;;;;;;23.95;16.12;;;;;;;8.95;86.08;100132.08;1730157;80;21017;-89
2022/11/16 10:11:45;;;;;;;23.10;16.42;;;;;;;8.99;86.00;100130.12;1730170;83;20858;-91
2022/11/16 10:14:23;;;;;;;22.10;16.90;;;;;;;9.01;86.02;100117.33;1730670;82;21229;-91
2022/11/16 10:16:58;;;;;;;21.20;16.87;;;;;;;9.07;85.99;100120.02;1731851;83;20941;-89
2022/11/16 10:19:56;;;;;;;21.62;15.08;;;;;;;9.12;86.01;100114.05;1732460;81;20956;-90
2022/11/16 10:22:48;;;;;;;23.87;15.55;;;;;;;9.20;85.84;100114.39;1731418;81;20973;-92
2022/11/16 10:25:17;;;;;;;18.17;13.95;;;;;;;9.27;85.53;100114.84;1730149;82;20989;-91
2022/11/16 10:28:14;;;;;;;17.85;14.10;;;;;;;9.29;85.29;100116.91;1730558;81;21087;-90
2022/11/16 10:31:06;;;;;;;20.43;13.90;;;;;;;9.30;85.28;100116.81;1729592;83;20966;-88
2022/11/16 10:33:36;;;;;;;18.10;13.72;;;;;;;9.32;85.08;100109.72;1690150;84;21123;-88
2022/11/16 10:36:17;;;;;;;20.97;13.72;;;;;;;9.34;84.96;100105.70;1663678;85;20914;-88
2022/11/16 10:38:43;;;;;;;19.25;13.20;;;;;;;9.33;84.93;100103.53;1662073;85;21005;-90
2022/11/16 10:41:36;;;;;;;19.17;14.38;;;;;;;9.36;84.92;100107.75;1660932;85;21221;-88
2022/11/16 10:44:25;;;;;;;22.20;14.78;;;;;;;9.37;84.74;100100.73;1654033;85;21032;-90
2022/11/16 10:47:00;;;;;;;24.40;17.80;;;;;;;9.34;84.76;100097.84;1661014;85;21554;-88
2022/11/16 10:49:40;;;;;;;29.07;20.37;;;;;;;9.34;84.79;100091.31;1660641;85;21141;-89
2022/11/16 10:52:06;;;;;;;37.05;23.80;;;;;;;9.35;84.81;100087.73;1660631;86;20964;-89
2022/11/16 10:54:33;;;;;;;26.80;17.42;;;;;;;9.37;84.83;100086.34;1660762;85;21138;-90
2022/11/16 10:57:05;;;;;;;23.75;17.23;;;;;;;9.38;84.86;100087.53;1660491;85;20925;-91
2022/11/16 10:59:46;;;;;;;23.15;17.40;;;;;;;9.37;84.87;100079.33;1661615;85;20961;-90
2022/11/16 11:02:31;;;;;;;21.42;16.87;;;;;;;9.40;84.94;100074.36;1639514;85;21025;-90
2022/11/16 11:05:15;;;;;;;20.10;14.87;;;;;;;9.42;84.94;100074.63;1662130;85;20961;-89
2022/11/16 11:07:46;;;;;;;19.92;15.58;;;;;;;9.41;84.90;100074.75;1663015;85;21353;-88
2022/11/16 11:10:33;;;;;;;28.60;21.07;;;;;;;9.40;85.00;100071.75;1690269;80;20929;-89
2022/11/16 11:13:15;;;;;;;31.68;23.15;;;;;;;9.40;85.07;100071.75;1801439;78;20903;-91
2022/11/16 11:15:43;;;;;;;27.10;18.95;;;;;;;9.41;85.14;100066.90;1821989;78;20887;-90
2022/11/16 11:18:25;;;;;;;29.60;21.40;;;;;;;9.41;85.19;100058.57;1821987;78;20848;-88
2022/11/16 11:21:19;;;;;;;30.37;22.73;;;;;;;9.43;85.29;100051.94;1816242;78;21273;-90
2022/11/16 11:23:52;;;;;;;27.87;19.35;;;;;;;9.42;85.31;100046.31;1821912;78;20947;-91
2022/11/16 11:26:37;;;;;;;20.15;15.40;;;;;;;9.41;85.38;100057.27;1821970;78;21076;-90
2022/11/16 11:29:22;;;;;;;22.32;17.32;;;;;;;9.38;85.41;100050.90;1790798;78;20947;-89
2022/11/16 11:31:51;;;;;;;25.62;17.73;;;;;;;9.36;85.53;100053.25;1822187;78;20867;-89
2022/11/16 11:34:22;;;;;;;21.93;16.12;;;;;;;9.33;85.64;100053.81;1821844;78;21183;-89
2022/11/16 11:36:59;;;;;;;28.17;19.48;;;;;;;9.33;85.77;100052.98;1822070;78;20852;-90
2022/11/16 11:39:35;;;;;;;29.30;19.35;;;;;;;9.34;85.89;100037.66;1821846;78;20919;-88
2022/11/16 11:42:15;;;;;;;30.20;19.37;;;;;;;9.36;85.98;100032.31;1822050;78;20904;-90
2022/11/16 11:44:50;;;;;;;32.23;21.25;;;;;;;9.38;85.98;100043.05;1822721;78;20971;-91
2022/11/16 11:48:01;;;;;;;37.60;22.37;;;;;;;9.41;85.98;100034.19;1721328;82;21054;-92
2022/11/16 11:50:55;;;;;;;35.48;21.57;;;;;;;9.45;85.94;100026.03;1723539;82;20923;-89
2022/11/16 11:53:56;;;;;;;29.87;19.12;;;;;;;9.49;85.86;100024.04;1723004;83;20947;-89
2022/11/16 11:56:24;;;;;;;27.13;17.67;;;;;;;9.51;85.76;100020.86;1699754;83;20922;-91
2022/11/16 11:58:50;;;;;;;26.82;19.05;;;;;;;9.54;85.81;100018.89;1723380;83;20959;-90
2022/11/16 12:01:53;;;;;;;39.00;27.32;;;;;;;9.59;85.74;100017.27;1723444;83;21290;-89
2022/11/16 12:04:35;;;;;;;23.62;17.95;;;;;;;9.62;85.58;100012.30;1678604;83;21393;-90
2022/11/16 12:07:35;;;;;;;26.20;17.17;;;;;;;9.63;85.47;100005.67;1721326;82;21088;-90
2022/11/16 12:10:18;;;;;;;25.72;16.55;;;;;;;9.66;85.42;100000.69;1721539;83;20930;-93
2022/11/16 12:13:31;;;;;;;25.17;17.62;;;;;;;9.64;85.24;99992.10;1717244;83;21037;-92
2022/11/16 12:16:11;;;;;;;29.55;19.73;;;;;;;9.66;85.34;99996.77;1721618;83;20911;-91
2022/11/16 12:19:21;;;;;;;26.40;17.77;;;;;;;9.69;85.43;100001.34;1782183;78;20903;-90
2022/11/16 12:22:05;;;;;;;30.02;19.40;;;;;;;9.74;85.38;100009.72;1783398;80;20924;-92
2022/11/16 12:24:52;;;;;;;30.15;19.20;;;;;;;9.79;85.21;100008.10;1783205;80;20947;-92
2022/11/16 12:27:27;;;;;;;32.67;20.65;;;;;;;9.81;85.03;100012.77;1783083;80;20960;-92
2022/11/16 12:30:17;;;;;;;33.33;20.60;;;;;;;9.82;84.98;100000.03;1783025;79;21143;-91
2022/11/16 12:33:11;;;;;;;28.12;18.77;;;;;;;9.84;84.93;99996.02;1783514;79;20900;-91
2022/11/16 12:36:01;;;;;;;29.15;19.35;;;;;;;9.81;84.84;99996.23;1783202;80;21552;-90